sensor_id;sensor_type;location;lat;lon;timestamp;P1;durP1;ratioP1;P2;durP2;ratioP2
51194;SDS011;37259;49.972;19.850;2022-07-03T00:00:28;11.4;;;13.2;;
51194;SDS011;37259;49.972;19.850;2022-07-03T00:01:28;11.4;;;13.2;;
51194;SDS011;37259;49.972;19.850;2022-07-03T00:02:28;11.4;;;13.2;;
51194;SDS011;37259;49.972;19.850;2022-07-03T00:03:28;11.4;;;13.2;;
51194;SDS011;37259;49.972;19.850;2022-07-03T00:04:28;11.4;;;13.2;;
51194;SDS011;37259;49.972;19.850;2022-07-03T00:05:28;11.4;;;13.2;;
51194;SDS011;37259;49.972;19.850;2022-07-03T00:06:28;11.4;;;13.2;;
51194;SDS011;37259;49.972;19.850;2022-07-03T00:07:28;11.4;;;13.2;;
51194;SDS011;37259;49.972;19.850;2022-07-03T00:08:28;11.4;;;13.2;;
51194;SDS011;37259;49.972;19.850;2022-07-03T00:09:28;11.4;;;13.2;;
51194;SDS011;37259;49.972;19.850;2022-07-03T00:10:28;11.4;;;13.2;;
51194;SDS011;37259;49.972;19.850;2022-07-03T00:11:28;11.4;;;13.2;;
51194;SDS011;37259;49.972;19.850;2022-07-03T00:12:28;11.4;;;13.2;;
51194;SDS011;37259;49.972;19.850;2022-07-03T00:13:28;11.8;;;15.3;;
51194;SDS011;37259;49.972;19.850;2022-07-03T00:14:28;11.8;;;15.3;;
51194;SDS011;37259;49.972;19.850;2022-07-03T00:15:28;11.8;;;15.3;;
51194;SDS011;37259;49.972;19.850;2022-07-03T00:16:28;11.8;;;15.3;;
51194;SDS011;37259;49.972;19.850;2022-07-03T00:17:28;11.8;;;15.3;;
51194;SDS011;37259;49.972;19.850;2022-07-03T00:18:28;11.8;;;15.3;;
51194;SDS011;37259;49.972;19.850;2022-07-03T00:19:28;11.8;;;15.3;;
51194;SDS011;37259;49.972;19.850;2022-07-03T00:20:29;11.8;;;15.3;;
51194;SDS011;37259;49.972;19.850;2022-07-03T00:21:29;11.8;;;15.3;;
51194;SDS011;37259;49.972;19.850;2022-07-03T00:22:29;11.8;;;15.3;;
51194;SDS011;37259;49.972;19.850;2022-07-03T00:23:28;11.8;;;15.3;;
51194;SDS011;37259;49.972;19.850;2022-07-03T00:24:31;11.8;;;15.3;;
51194;SDS011;37259;49.972;19.850;2022-07-03T00:25:28;11.8;;;15.3;;
51194;SDS011;37259;49.972;19.850;2022-07-03T00:26:29;11.8;;;15.3;;
51194;SDS011;37259;49.972;19.850;2022-07-03T00:27:28;11.8;;;15.3;;
51194;SDS011;37259;49.972;19.850;2022-07-03T00:28:28;11.8;;;15.3;;
51194;SDS011;37259;49.972;19.850;2022-07-03T00:29:29;11.8;;;15.3;;
51194;SDS011;37259;49.972;19.850;2022-07-03T00:30:28;11.8;;;15.3;;
51194;SDS011;37259;49.972;19.850;2022-07-03T00:31:28;11.8;;;15.3;;
51194;SDS011;37259;49.972;19.850;2022-07-03T00:32:28;11.8;;;15.3;;
51194;SDS011;37259;49.972;19.850;2022-07-03T00:33:29;11.8;;;15.3;;
51194;SDS011;37259;49.972;19.850;2022-07-03T00:34:28;11.8;;;15.3;;
51194;SDS011;37259;49.972;19.850;2022-07-03T00:35:28;11.8;;;15.3;;
51194;SDS011;37259;49.972;19.850;2022-07-03T00:36:29;11.8;;;15.3;;
51194;SDS011;37259;49.972;19.850;2022-07-03T00:37:28;11.8;;;15.3;;
51194;SDS011;37259;49.972;19.850;2022-07-03T00:38:28;11.8;;;15.3;;
51194;SDS011;37259;49.972;19.850;2022-07-03T00:39:28;11.8;;;15.3;;
51194;SDS011;37259;49.972;19.850;2022-07-03T00:40:28;11.8;;;15.3;;
51194;SDS011;37259;49.972;19.850;2022-07-03T00:41:29;11.8;;;15.3;;
51194;SDS011;37259;49.972;19.850;2022-07-03T00:42:28;11.8;;;15.3;;
51194;SDS011;37259;49.972;19.850;2022-07-03T00:43:28;10.4;;;13.3;;
51194;SDS011;37259;49.972;19.850;2022-07-03T00:44:28;10.4;;;13.3;;
51194;SDS011;37259;49.972;19.850;2022-07-03T00:45:28;10.4;;;13.3;;
51194;SDS011;37259;49.972;19.850;2022-07-03T00:46:28;10.4;;;13.3;;
51194;SDS011;37259;49.972;19.850;2022-07-03T00:47:28;10.4;;;13.3;;
51194;SDS011;37259;49.972;19.850;2022-07-03T00:48:28;10.4;;;13.3;;
51194;SDS011;37259;49.972;19.850;2022-07-03T00:49:28;10.4;;;13.3;;
51194;SDS011;37259;49.972;19.850;2022-07-03T00:50:33;10.4;;;13.3;;
51194;SDS011;37259;49.972;19.850;2022-07-03T00:51:28;10.4;;;13.3;;
51194;SDS011;37259;49.972;19.850;2022-07-03T00:52:28;10.4;;;13.3;;
51194;SDS011;37259;49.972;19.850;2022-07-03T00:53:29;10.4;;;13.3;;
51194;SDS011;37259;49.972;19.850;2022-07-03T00:54:28;10.4;;;13.3;;
51194;SDS011;37259;49.972;19.850;2022-07-03T00:55:28;10.4;;;13.3;;
51194;SDS011;37259;49.972;19.850;2022-07-03T00:56:29;10.4;;;13.3;;
51194;SDS011;37259;49.972;19.850;2022-07-03T00:57:29;10.4;;;13.3;;
51194;SDS011;37259;49.972;19.850;2022-07-03T00:58:28;10.4;;;13.3;;
51194;SDS011;37259;49.972;19.850;2022-07-03T00:59:28;10.4;;;13.3;;
51194;SDS011;37259;49.972;19.850;2022-07-03T01:00:28;10.4;;;13.3;;
51194;SDS011;37259;49.972;19.850;2022-07-03T01:01:29;10.4;;;13.3;;
51194;SDS011;37259;49.972;19.850;2022-07-03T01:02:30;10.4;;;13.3;;
51194;SDS011;37259;49.972;19.850;2022-07-03T01:03:28;10.4;;;13.3;;
51194;SDS011;37259;49.972;19.850;2022-07-03T01:04:30;10.4;;;13.3;;
51194;SDS011;37259;49.972;19.850;2022-07-03T01:05:30;10.4;;;13.3;;
51194;SDS011;37259;49.972;19.850;2022-07-03T01:06:28;10.4;;;13.3;;
51194;SDS011;37259;49.972;19.850;2022-07-03T01:07:32;10.4;;;13.3;;
51194;SDS011;37259;49.972;19.850;2022-07-03T01:08:30;10.4;;;13.3;;
51194;SDS011;37259;49.972;19.850;2022-07-03T01:09:32;10.4;;;13.3;;
51194;SDS011;37259;49.972;19.850;2022-07-03T01:10:30;10.4;;;13.3;;
51194;SDS011;37259;49.972;19.850;2022-07-03T01:11:30;10.4;;;13.3;;
51194;SDS011;37259;49.972;19.850;2022-07-03T01:12:33;10.4;;;13.3;;
51194;SDS011;37259;49.972;19.850;2022-07-03T01:13:31;10.6;;;13.1;;
51194;SDS011;37259;49.972;19.850;2022-07-03T01:14:31;10.6;;;13.1;;
51194;SDS011;37259;49.972;19.850;2022-07-03T01:15:32;10.6;;;13.1;;
51194;SDS011;37259;49.972;19.850;2022-07-03T01:16:30;10.6;;;13.1;;
51194;SDS011;37259;49.972;19.850;2022-07-03T01:17:30;10.6;;;13.1;;
51194;SDS011;37259;49.972;19.850;2022-07-03T01:18:31;10.6;;;13.1;;
51194;SDS011;37259;49.972;19.850;2022-07-03T01:19:34;10.6;;;13.1;;
51194;SDS011;37259;49.972;19.850;2022-07-03T01:20:28;10.6;;;13.1;;
51194;SDS011;37259;49.972;19.850;2022-07-03T01:21:31;10.6;;;13.1;;
51194;SDS011;37259;49.972;19.850;2022-07-03T01:22:29;10.6;;;13.1;;
51194;SDS011;37259;49.972;19.850;2022-07-03T01:23:30;10.6;;;13.1;;
51194;SDS011;37259;49.972;19.850;2022-07-03T01:24:37;10.6;;;13.1;;
51194;SDS011;37259;49.972;19.850;2022-07-03T01:25:36;10.6;;;13.1;;
51194;SDS011;37259;49.972;19.850;2022-07-03T01:26:29;10.6;;;13.1;;
51194;SDS011;37259;49.972;19.850;2022-07-03T01:27:30;10.6;;;13.1;;
51194;SDS011;37259;49.972;19.850;2022-07-03T01:28:28;10.6;;;13.1;;
51194;SDS011;37259;49.972;19.850;2022-07-03T01:29:30;10.6;;;13.1;;
51194;SDS011;37259;49.972;19.850;2022-07-03T01:30:29;10.6;;;13.1;;
51194;SDS011;37259;49.972;19.850;2022-07-03T01:31:28;10.6;;;13.1;;
51194;SDS011;37259;49.972;19.850;2022-07-03T01:32:37;10.6;;;13.1;;
51194;SDS011;37259;49.972;19.850;2022-07-03T01:33:30;10.6;;;13.1;;
51194;SDS011;37259;49.972;19.850;2022-07-03T01:34:29;10.6;;;13.1;;
51194;SDS011;37259;49.972;19.850;2022-07-03T01:35:31;10.6;;;13.1;;
51194;SDS011;37259;49.972;19.850;2022-07-03T01:36:28;10.6;;;13.1;;
51194;SDS011;37259;49.972;19.850;2022-07-03T01:37:30;10.6;;;13.1;;
51194;SDS011;37259;49.972;19.850;2022-07-03T01:38:28;10.6;;;13.1;;
51194;SDS011;37259;49.972;19.850;2022-07-03T01:39:28;10.6;;;13.1;;
51194;SDS011;37259;49.972;19.850;2022-07-03T01:40:28;10.6;;;13.1;;
51194;SDS011;37259;49.972;19.850;2022-07-03T01:41:28;10.6;;;13.1;;
51194;SDS011;37259;49.972;19.850;2022-07-03T01:42:28;10.6;;;13.1;;
51194;SDS011;37259;49.972;19.850;2022-07-03T01:43:29;12.4;;;15.9;;
51194;SDS011;37259;49.972;19.850;2022-07-03T01:44:28;12.4;;;15.9;;
51194;SDS011;37259;49.972;19.850;2022-07-03T01:45:28;12.4;;;15.9;;
51194;SDS011;37259;49.972;19.850;2022-07-03T01:46:29;12.4;;;15.9;;
51194;SDS011;37259;49.972;19.850;2022-07-03T01:47:28;12.4;;;15.9;;
51194;SDS011;37259;49.972;19.850;2022-07-03T01:48:29;12.4;;;15.9;;
51194;SDS011;37259;49.972;19.850;2022-07-03T01:49:28;12.4;;;15.9;;
51194;SDS011;37259;49.972;19.850;2022-07-03T01:50:28;12.4;;;15.9;;
51194;SDS011;37259;49.972;19.850;2022-07-03T01:51:28;12.4;;;15.9;;
51194;SDS011;37259;49.972;19.850;2022-07-03T01:52:28;12.4;;;15.9;;
51194;SDS011;37259;49.972;19.850;2022-07-03T01:53:29;12.4;;;15.9;;
51194;SDS011;37259;49.972;19.850;2022-07-03T01:54:28;12.4;;;15.9;;
51194;SDS011;37259;49.972;19.850;2022-07-03T01:55:30;12.4;;;15.9;;
51194;SDS011;37259;49.972;19.850;2022-07-03T01:56:28;12.4;;;15.9;;
51194;SDS011;37259;49.972;19.850;2022-07-03T01:57:31;12.4;;;15.9;;
51194;SDS011;37259;49.972;19.850;2022-07-03T01:58:28;12.4;;;15.9;;
51194;SDS011;37259;49.972;19.850;2022-07-03T01:59:28;12.4;;;15.9;;
51194;SDS011;37259;49.972;19.850;2022-07-03T02:00:28;12.4;;;15.9;;
51194;SDS011;37259;49.972;19.850;2022-07-03T02:01:31;12.4;;;15.9;;
51194;SDS011;37259;49.972;19.850;2022-07-03T02:02:30;12.4;;;15.9;;
51194;SDS011;37259;49.972;19.850;2022-07-03T02:03:29;12.4;;;15.9;;
51194;SDS011;37259;49.972;19.850;2022-07-03T02:04:28;12.4;;;15.9;;
51194;SDS011;37259;49.972;19.850;2022-07-03T02:05:29;12.4;;;15.9;;
51194;SDS011;37259;49.972;19.850;2022-07-03T02:06:29;12.4;;;15.9;;
51194;SDS011;37259;49.972;19.850;2022-07-03T02:07:30;12.4;;;15.9;;
51194;SDS011;37259;49.972;19.850;2022-07-03T02:08:32;12.4;;;15.9;;
51194;SDS011;37259;49.972;19.850;2022-07-03T02:09:30;12.4;;;15.9;;
51194;SDS011;37259;49.972;19.850;2022-07-03T02:10:29;12.4;;;15.9;;
51194;SDS011;37259;49.972;19.850;2022-07-03T02:11:28;12.4;;;15.9;;
51194;SDS011;37259;49.972;19.850;2022-07-03T02:12:34;12.4;;;15.9;;
51194;SDS011;37259;49.972;19.850;2022-07-03T02:13:28;8.7;;;14.2;;
51194;SDS011;37259;49.972;19.850;2022-07-03T02:14:31;8.7;;;14.2;;
51194;SDS011;37259;49.972;19.850;2022-07-03T02:15:29;8.7;;;14.2;;
51194;SDS011;37259;49.972;19.850;2022-07-03T02:16:28;8.7;;;14.2;;
51194;SDS011;37259;49.972;19.850;2022-07-03T02:17:29;8.7;;;14.2;;
51194;SDS011;37259;49.972;19.850;2022-07-03T02:18:29;8.7;;;14.2;;
51194;SDS011;37259;49.972;19.850;2022-07-03T02:19:30;8.7;;;14.2;;
51194;SDS011;37259;49.972;19.850;2022-07-03T02:20:28;8.7;;;14.2;;
51194;SDS011;37259;49.972;19.850;2022-07-03T02:21:28;8.7;;;14.2;;
51194;SDS011;37259;49.972;19.850;2022-07-03T02:22:32;8.7;;;14.2;;
51194;SDS011;37259;49.972;19.850;2022-07-03T02:23:29;8.7;;;14.2;;
51194;SDS011;37259;49.972;19.850;2022-07-03T02:24:28;8.7;;;14.2;;
51194;SDS011;37259;49.972;19.850;2022-07-03T02:25:30;8.7;;;14.2;;
51194;SDS011;37259;49.972;19.850;2022-07-03T02:26:29;8.7;;;14.2;;
51194;SDS011;37259;49.972;19.850;2022-07-03T02:27:28;8.7;;;14.2;;
51194;SDS011;37259;49.972;19.850;2022-07-03T02:28:30;8.7;;;14.2;;
51194;SDS011;37259;49.972;19.850;2022-07-03T02:29:30;8.7;;;14.2;;
51194;SDS011;37259;49.972;19.850;2022-07-03T02:30:28;8.7;;;14.2;;
51194;SDS011;37259;49.972;19.850;2022-07-03T02:31:28;8.7;;;14.2;;
51194;SDS011;37259;49.972;19.850;2022-07-03T02:32:28;8.7;;;14.2;;
51194;SDS011;37259;49.972;19.850;2022-07-03T02:33:28;8.7;;;14.2;;
51194;SDS011;37259;49.972;19.850;2022-07-03T02:34:28;8.7;;;14.2;;
51194;SDS011;37259;49.972;19.850;2022-07-03T02:35:29;8.7;;;14.2;;
51194;SDS011;37259;49.972;19.850;2022-07-03T02:36:28;8.7;;;14.2;;
51194;SDS011;37259;49.972;19.850;2022-07-03T02:37:30;8.7;;;14.2;;
51194;SDS011;37259;49.972;19.850;2022-07-03T02:38:28;8.7;;;14.2;;
51194;SDS011;37259;49.972;19.850;2022-07-03T02:39:31;8.7;;;14.2;;
51194;SDS011;37259;49.972;19.850;2022-07-03T02:40:42;8.7;;;14.2;;
51194;SDS011;37259;49.972;19.850;2022-07-03T02:41:29;8.7;;;14.2;;
51194;SDS011;37259;49.972;19.850;2022-07-03T02:42:29;8.7;;;14.2;;
51194;SDS011;37259;49.972;19.850;2022-07-03T02:43:31;7.9;;;11.4;;
51194;SDS011;37259;49.972;19.850;2022-07-03T02:44:30;7.9;;;11.4;;
51194;SDS011;37259;49.972;19.850;2022-07-03T02:45:29;7.9;;;11.4;;
51194;SDS011;37259;49.972;19.850;2022-07-03T02:46:31;7.9;;;11.4;;
51194;SDS011;37259;49.972;19.850;2022-07-03T02:47:30;7.9;;;11.4;;
51194;SDS011;37259;49.972;19.850;2022-07-03T02:48:29;7.9;;;11.4;;
51194;SDS011;37259;49.972;19.850;2022-07-03T02:49:48;7.9;;;11.4;;
51194;SDS011;37259;49.972;19.850;2022-07-03T02:50:28;7.9;;;11.4;;
51194;SDS011;37259;49.972;19.850;2022-07-03T02:51:30;7.9;;;11.4;;
51194;SDS011;37259;49.972;19.850;2022-07-03T02:52:30;7.9;;;11.4;;
51194;SDS011;37259;49.972;19.850;2022-07-03T02:53:30;7.9;;;11.4;;
51194;SDS011;37259;49.972;19.850;2022-07-03T02:54:28;7.9;;;11.4;;
51194;SDS011;37259;49.972;19.850;2022-07-03T02:55:36;7.9;;;11.4;;
51194;SDS011;37259;49.972;19.850;2022-07-03T02:56:39;7.9;;;11.4;;
51194;SDS011;37259;49.972;19.850;2022-07-03T02:57:29;7.9;;;11.4;;
51194;SDS011;37259;49.972;19.850;2022-07-03T02:58:46;7.9;;;11.4;;
51194;SDS011;37259;49.972;19.850;2022-07-03T02:59:32;7.9;;;11.4;;
51194;SDS011;37259;49.972;19.850;2022-07-03T03:00:28;7.9;;;11.4;;
51194;SDS011;37259;49.972;19.850;2022-07-03T03:01:29;7.9;;;11.4;;
51194;SDS011;37259;49.972;19.850;2022-07-03T03:02:35;7.9;;;11.4;;
51194;SDS011;37259;49.972;19.850;2022-07-03T03:03:29;7.9;;;11.4;;
51194;SDS011;37259;49.972;19.850;2022-07-03T03:04:29;7.9;;;11.4;;
51194;SDS011;37259;49.972;19.850;2022-07-03T03:05:30;7.9;;;11.4;;
51194;SDS011;37259;49.972;19.850;2022-07-03T03:06:28;7.9;;;11.4;;
51194;SDS011;37259;49.972;19.850;2022-07-03T03:07:29;7.9;;;11.4;;
51194;SDS011;37259;49.972;19.850;2022-07-03T03:08:31;7.9;;;11.4;;
51194;SDS011;37259;49.972;19.850;2022-07-03T03:09:32;7.9;;;11.4;;
51194;SDS011;37259;49.972;19.850;2022-07-03T03:10:28;7.9;;;11.4;;
51194;SDS011;37259;49.972;19.850;2022-07-03T03:11:29;7.9;;;11.4;;
51194;SDS011;37259;49.972;19.850;2022-07-03T03:12:29;7.9;;;11.4;;
51194;SDS011;37259;49.972;19.850;2022-07-03T03:13:29;7.3;;;9.9;;
51194;SDS011;37259;49.972;19.850;2022-07-03T03:14:32;7.3;;;9.9;;
51194;SDS011;37259;49.972;19.850;2022-07-03T03:15:29;7.3;;;9.9;;
51194;SDS011;37259;49.972;19.850;2022-07-03T03:16:28;7.3;;;9.9;;
51194;SDS011;37259;49.972;19.850;2022-07-03T03:17:29;7.3;;;9.9;;
51194;SDS011;37259;49.972;19.850;2022-07-03T03:18:28;7.3;;;9.9;;
51194;SDS011;37259;49.972;19.850;2022-07-03T03:19:28;7.3;;;9.9;;
51194;SDS011;37259;49.972;19.850;2022-07-03T03:20:29;7.3;;;9.9;;
51194;SDS011;37259;49.972;19.850;2022-07-03T03:21:28;7.3;;;9.9;;
51194;SDS011;37259;49.972;19.850;2022-07-03T03:22:38;7.3;;;9.9;;
51194;SDS011;37259;49.972;19.850;2022-07-03T03:23:30;7.3;;;9.9;;
51194;SDS011;37259;49.972;19.850;2022-07-03T03:24:28;7.3;;;9.9;;
51194;SDS011;37259;49.972;19.850;2022-07-03T03:25:28;7.3;;;9.9;;
51194;SDS011;37259;49.972;19.850;2022-07-03T03:26:28;7.3;;;9.9;;
51194;SDS011;37259;49.972;19.850;2022-07-03T03:27:28;7.3;;;9.9;;
51194;SDS011;37259;49.972;19.850;2022-07-03T03:28:28;7.3;;;9.9;;
51194;SDS011;37259;49.972;19.850;2022-07-03T03:29:28;7.3;;;9.9;;
51194;SDS011;37259;49.972;19.850;2022-07-03T03:30:28;7.3;;;9.9;;
51194;SDS011;37259;49.972;19.850;2022-07-03T03:31:28;7.3;;;9.9;;
51194;SDS011;37259;49.972;19.850;2022-07-03T03:32:28;7.3;;;9.9;;
51194;SDS011;37259;49.972;19.850;2022-07-03T03:33:28;7.3;;;9.9;;
51194;SDS011;37259;49.972;19.850;2022-07-03T03:34:28;7.3;;;9.9;;
51194;SDS011;37259;49.972;19.850;2022-07-03T03:35:28;7.3;;;9.9;;
51194;SDS011;37259;49.972;19.850;2022-07-03T03:36:28;7.3;;;9.9;;
51194;SDS011;37259;49.972;19.850;2022-07-03T03:37:28;7.3;;;9.9;;
51194;SDS011;37259;49.972;19.850;2022-07-03T03:38:28;7.3;;;9.9;;
51194;SDS011;37259;49.972;19.850;2022-07-03T03:39:28;7.3;;;9.9;;
51194;SDS011;37259;49.972;19.850;2022-07-03T03:40:28;7.3;;;9.9;;
51194;SDS011;37259;49.972;19.850;2022-07-03T03:41:28;7.3;;;9.9;;
51194;SDS011;37259;49.972;19.850;2022-07-03T03:42:28;7.3;;;9.9;;
51194;SDS011;37259;49.972;19.850;2022-07-03T03:43:28;6;;;8;;
51194;SDS011;37259;49.972;19.850;2022-07-03T03:44:29;6;;;8;;
51194;SDS011;37259;49.972;19.850;2022-07-03T03:45:28;6;;;8;;
51194;SDS011;37259;49.972;19.850;2022-07-03T03:46:28;6;;;8;;
51194;SDS011;37259;49.972;19.850;2022-07-03T03:47:28;6;;;8;;
51194;SDS011;37259;49.972;19.850;2022-07-03T03:48:28;6;;;8;;
51194;SDS011;37259;49.972;19.850;2022-07-03T03:49:28;6;;;8;;
51194;SDS011;37259;49.972;19.850;2022-07-03T03:50:28;6;;;8;;
51194;SDS011;37259;49.972;19.850;2022-07-03T03:51:28;6;;;8;;
51194;SDS011;37259;49.972;19.850;2022-07-03T03:52:28;6;;;8;;
51194;SDS011;37259;49.972;19.850;2022-07-03T03:53:29;6;;;8;;
51194;SDS011;37259;49.972;19.850;2022-07-03T03:54:28;6;;;8;;
51194;SDS011;37259;49.972;19.850;2022-07-03T03:55:28;6;;;8;;
51194;SDS011;37259;49.972;19.850;2022-07-03T03:56:28;6;;;8;;
51194;SDS011;37259;49.972;19.850;2022-07-03T03:57:28;6;;;8;;
51194;SDS011;37259;49.972;19.850;2022-07-03T03:58:29;6;;;8;;
51194;SDS011;37259;49.972;19.850;2022-07-03T03:59:28;6;;;8;;
51194;SDS011;37259;49.972;19.850;2022-07-03T04:00:28;6;;;8;;
51194;SDS011;37259;49.972;19.850;2022-07-03T04:01:28;6;;;8;;
51194;SDS011;37259;49.972;19.850;2022-07-03T04:02:28;6;;;8;;
51194;SDS011;37259;49.972;19.850;2022-07-03T04:03:28;6;;;8;;
51194;SDS011;37259;49.972;19.850;2022-07-03T04:04:28;6;;;8;;
51194;SDS011;37259;49.972;19.850;2022-07-03T04:05:28;6;;;8;;
51194;SDS011;37259;49.972;19.850;2022-07-03T04:06:28;6;;;8;;
51194;SDS011;37259;49.972;19.850;2022-07-03T04:07:28;6;;;8;;
51194;SDS011;37259;49.972;19.850;2022-07-03T04:08:28;6;;;8;;
51194;SDS011;37259;49.972;19.850;2022-07-03T04:09:28;6;;;8;;
51194;SDS011;37259;49.972;19.850;2022-07-03T04:10:28;6;;;8;;
51194;SDS011;37259;49.972;19.850;2022-07-03T04:11:28;6;;;8;;
51194;SDS011;37259;49.972;19.850;2022-07-03T04:12:28;6;;;8;;
51194;SDS011;37259;49.972;19.850;2022-07-03T04:13:28;6.3;;;9.6;;
51194;SDS011;37259;49.972;19.850;2022-07-03T04:14:28;6.3;;;9.6;;
51194;SDS011;37259;49.972;19.850;2022-07-03T04:15:28;6.3;;;9.6;;
51194;SDS011;37259;49.972;19.850;2022-07-03T04:16:28;6.3;;;9.6;;
51194;SDS011;37259;49.972;19.850;2022-07-03T04:17:28;6.3;;;9.6;;
51194;SDS011;37259;49.972;19.850;2022-07-03T04:18:28;6.3;;;9.6;;
51194;SDS011;37259;49.972;19.850;2022-07-03T04:19:28;6.3;;;9.6;;
51194;SDS011;37259;49.972;19.850;2022-07-03T04:20:28;6.3;;;9.6;;
51194;SDS011;37259;49.972;19.850;2022-07-03T04:21:28;6.3;;;9.6;;
51194;SDS011;37259;49.972;19.850;2022-07-03T04:22:28;6.3;;;9.6;;
51194;SDS011;37259;49.972;19.850;2022-07-03T04:23:28;6.3;;;9.6;;
51194;SDS011;37259;49.972;19.850;2022-07-03T04:24:28;6.3;;;9.6;;
51194;SDS011;37259;49.972;19.850;2022-07-03T04:25:28;6.3;;;9.6;;
51194;SDS011;37259;49.972;19.850;2022-07-03T04:26:28;6.3;;;9.6;;
51194;SDS011;37259;49.972;19.850;2022-07-03T04:27:28;6.3;;;9.6;;
51194;SDS011;37259;49.972;19.850;2022-07-03T04:28:28;6.3;;;9.6;;
51194;SDS011;37259;49.972;19.850;2022-07-03T04:29:28;6.3;;;9.6;;
51194;SDS011;37259;49.972;19.850;2022-07-03T04:30:28;6.3;;;9.6;;
51194;SDS011;37259;49.972;19.850;2022-07-03T04:31:28;6.3;;;9.6;;
51194;SDS011;37259;49.972;19.850;2022-07-03T04:32:28;6.3;;;9.6;;
51194;SDS011;37259;49.972;19.850;2022-07-03T04:33:28;6.3;;;9.6;;
51194;SDS011;37259;49.972;19.850;2022-07-03T04:34:28;6.3;;;9.6;;
51194;SDS011;37259;49.972;19.850;2022-07-03T04:35:28;6.3;;;9.6;;
51194;SDS011;37259;49.972;19.850;2022-07-03T04:36:28;6.3;;;9.6;;
51194;SDS011;37259;49.972;19.850;2022-07-03T04:37:28;6.3;;;9.6;;
51194;SDS011;37259;49.972;19.850;2022-07-03T04:38:30;6.3;;;9.6;;
51194;SDS011;37259;49.972;19.850;2022-07-03T04:39:28;6.3;;;9.6;;
51194;SDS011;37259;49.972;19.850;2022-07-03T04:40:28;6.3;;;9.6;;
51194;SDS011;37259;49.972;19.850;2022-07-03T04:41:28;6.3;;;9.6;;
51194;SDS011;37259;49.972;19.850;2022-07-03T04:42:28;6.3;;;9.6;;
51194;SDS011;37259;49.972;19.850;2022-07-03T04:43:28;6.6;;;9.1;;
51194;SDS011;37259;49.972;19.850;2022-07-03T04:44:28;6.6;;;9.1;;
51194;SDS011;37259;49.972;19.850;2022-07-03T04:46:28;6.6;;;9.1;;
51194;SDS011;37259;49.972;19.850;2022-07-03T04:47:28;6.6;;;9.1;;
51194;SDS011;37259;49.972;19.850;2022-07-03T04:48:28;6.6;;;9.1;;
51194;SDS011;37259;49.972;19.850;2022-07-03T04:49:28;6.6;;;9.1;;
51194;SDS011;37259;49.972;19.850;2022-07-03T04:50:28;6.6;;;9.1;;
51194;SDS011;37259;49.972;19.850;2022-07-03T04:51:28;6.6;;;9.1;;
51194;SDS011;37259;49.972;19.850;2022-07-03T04:52:28;6.6;;;9.1;;
51194;SDS011;37259;49.972;19.850;2022-07-03T04:53:28;6.6;;;9.1;;
51194;SDS011;37259;49.972;19.850;2022-07-03T04:54:28;6.6;;;9.1;;
51194;SDS011;37259;49.972;19.850;2022-07-03T04:55:28;6.6;;;9.1;;
51194;SDS011;37259;49.972;19.850;2022-07-03T04:56:28;6.6;;;9.1;;
51194;SDS011;37259;49.972;19.850;2022-07-03T04:57:28;6.6;;;9.1;;
51194;SDS011;37259;49.972;19.850;2022-07-03T04:58:28;6.6;;;9.1;;
51194;SDS011;37259;49.972;19.850;2022-07-03T04:59:28;6.6;;;9.1;;
51194;SDS011;37259;49.972;19.850;2022-07-03T05:00:28;6.6;;;9.1;;
51194;SDS011;37259;49.972;19.850;2022-07-03T05:01:28;6.6;;;9.1;;
51194;SDS011;37259;49.972;19.850;2022-07-03T05:02:28;6.6;;;9.1;;
51194;SDS011;37259;49.972;19.850;2022-07-03T05:03:28;6.6;;;9.1;;
51194;SDS011;37259;49.972;19.850;2022-07-03T05:04:28;6.6;;;9.1;;
51194;SDS011;37259;49.972;19.850;2022-07-03T05:05:28;6.6;;;9.1;;
51194;SDS011;37259;49.972;19.850;2022-07-03T05:06:28;6.6;;;9.1;;
51194;SDS011;37259;49.972;19.850;2022-07-03T05:07:28;6.6;;;9.1;;
51194;SDS011;37259;49.972;19.850;2022-07-03T05:08:28;6.6;;;9.1;;
51194;SDS011;37259;49.972;19.850;2022-07-03T05:09:28;6.6;;;9.1;;
51194;SDS011;37259;49.972;19.850;2022-07-03T05:10:28;6.6;;;9.1;;
51194;SDS011;37259;49.972;19.850;2022-07-03T05:11:28;6.6;;;9.1;;
51194;SDS011;37259;49.972;19.850;2022-07-03T05:12:28;6.6;;;9.1;;
51194;SDS011;37259;49.972;19.850;2022-07-03T05:13:28;6.6;;;11.2;;
51194;SDS011;37259;49.972;19.850;2022-07-03T05:14:28;6.6;;;11.2;;
51194;SDS011;37259;49.972;19.850;2022-07-03T05:15:28;6.6;;;11.2;;
51194;SDS011;37259;49.972;19.850;2022-07-03T05:16:28;6.6;;;11.2;;
51194;SDS011;37259;49.972;19.850;2022-07-03T05:17:28;6.6;;;11.2;;
51194;SDS011;37259;49.972;19.850;2022-07-03T05:18:28;6.6;;;11.2;;
51194;SDS011;37259;49.972;19.850;2022-07-03T05:19:28;6.6;;;11.2;;
51194;SDS011;37259;49.972;19.850;2022-07-03T05:20:28;6.6;;;11.2;;
51194;SDS011;37259;49.972;19.850;2022-07-03T05:21:28;6.6;;;11.2;;
51194;SDS011;37259;49.972;19.850;2022-07-03T05:22:28;6.6;;;11.2;;
51194;SDS011;37259;49.972;19.850;2022-07-03T05:23:28;6.6;;;11.2;;
51194;SDS011;37259;49.972;19.850;2022-07-03T05:24:28;6.6;;;11.2;;
51194;SDS011;37259;49.972;19.850;2022-07-03T05:25:29;6.6;;;11.2;;
51194;SDS011;37259;49.972;19.850;2022-07-03T05:26:28;6.6;;;11.2;;
51194;SDS011;37259;49.972;19.850;2022-07-03T05:27:28;6.6;;;11.2;;
51194;SDS011;37259;49.972;19.850;2022-07-03T05:28:28;6.6;;;11.2;;
51194;SDS011;37259;49.972;19.850;2022-07-03T05:29:28;6.6;;;11.2;;
51194;SDS011;37259;49.972;19.850;2022-07-03T05:30:28;6.6;;;11.2;;
51194;SDS011;37259;49.972;19.850;2022-07-03T05:31:28;6.6;;;11.2;;
51194;SDS011;37259;49.972;19.850;2022-07-03T05:32:28;6.6;;;11.2;;
51194;SDS011;37259;49.972;19.850;2022-07-03T05:33:28;6.6;;;11.2;;
51194;SDS011;37259;49.972;19.850;2022-07-03T05:34:28;6.6;;;11.2;;
51194;SDS011;37259;49.972;19.850;2022-07-03T05:35:28;6.6;;;11.2;;
51194;SDS011;37259;49.972;19.850;2022-07-03T05:36:28;6.6;;;11.2;;
51194;SDS011;37259;49.972;19.850;2022-07-03T05:37:28;6.6;;;11.2;;
51194;SDS011;37259;49.972;19.850;2022-07-03T05:38:28;6.6;;;11.2;;
51194;SDS011;37259;49.972;19.850;2022-07-03T05:39:28;6.6;;;11.2;;
51194;SDS011;37259;49.972;19.850;2022-07-03T05:40:28;6.6;;;11.2;;
51194;SDS011;37259;49.972;19.850;2022-07-03T05:41:28;6.6;;;11.2;;
51194;SDS011;37259;49.972;19.850;2022-07-03T05:42:28;6.6;;;11.2;;
51194;SDS011;37259;49.972;19.850;2022-07-03T05:43:28;6.5;;;8.5;;
51194;SDS011;37259;49.972;19.850;2022-07-03T05:44:28;6.5;;;8.5;;
51194;SDS011;37259;49.972;19.850;2022-07-03T05:45:28;6.5;;;8.5;;
51194;SDS011;37259;49.972;19.850;2022-07-03T05:46:28;6.5;;;8.5;;
51194;SDS011;37259;49.972;19.850;2022-07-03T05:47:28;6.5;;;8.5;;
51194;SDS011;37259;49.972;19.850;2022-07-03T05:48:28;6.5;;;8.5;;
51194;SDS011;37259;49.972;19.850;2022-07-03T05:49:28;6.5;;;8.5;;
51194;SDS011;37259;49.972;19.850;2022-07-03T05:50:28;6.5;;;8.5;;
51194;SDS011;37259;49.972;19.850;2022-07-03T05:51:28;6.5;;;8.5;;
51194;SDS011;37259;49.972;19.850;2022-07-03T05:52:28;6.5;;;8.5;;
51194;SDS011;37259;49.972;19.850;2022-07-03T05:53:28;6.5;;;8.5;;
51194;SDS011;37259;49.972;19.850;2022-07-03T05:54:28;6.5;;;8.5;;
51194;SDS011;37259;49.972;19.850;2022-07-03T05:55:28;6.5;;;8.5;;
51194;SDS011;37259;49.972;19.850;2022-07-03T05:56:28;6.5;;;8.5;;
51194;SDS011;37259;49.972;19.850;2022-07-03T05:57:28;6.5;;;8.5;;
51194;SDS011;37259;49.972;19.850;2022-07-03T05:58:28;6.5;;;8.5;;
51194;SDS011;37259;49.972;19.850;2022-07-03T05:59:28;6.5;;;8.5;;
51194;SDS011;37259;49.972;19.850;2022-07-03T06:00:28;6.5;;;8.5;;
51194;SDS011;37259;49.972;19.850;2022-07-03T06:01:28;6.5;;;8.5;;
51194;SDS011;37259;49.972;19.850;2022-07-03T06:02:28;6.5;;;8.5;;
51194;SDS011;37259;49.972;19.850;2022-07-03T06:03:28;6.5;;;8.5;;
51194;SDS011;37259;49.972;19.850;2022-07-03T06:04:28;6.5;;;8.5;;